createdAt,value
2019-04-04T00:00:25.695Z,10.00
2019-04-04T00:02:54.135Z,10.00
2019-04-04T00:05:25.590Z,9.90
2019-04-04T00:07:53.289Z,9.90
2019-04-04T00:10:21.794Z,9.90
2019-04-04T00:12:50.280Z,10.00
2019-04-04T00:15:18.735Z,10.00
2019-04-04T00:17:47.172Z,9.90
2019-04-04T00:20:15.699Z,9.90
2019-04-04T00:22:44.149Z,9.90
2019-04-04T00:25:12.643Z,10.00
2019-04-04T00:27:43.686Z,10.00
2019-04-04T00:30:12.085Z,10.00
2019-04-04T00:32:40.512Z,10.10
2019-04-04T00:35:09.262Z,10.10
2019-04-04T00:37:37.738Z,10.10
2019-04-04T00:40:10.779Z,10.10
2019-04-04T00:42:37.669Z,10.00
2019-04-04T00:45:07.143Z,9.90
2019-04-04T00:47:35.604Z,9.90
2019-04-04T00:50:06.687Z,9.90
2019-04-04T00:52:35.303Z,9.90
2019-04-04T00:55:04.688Z,9.90
2019-04-04T00:57:33.153Z,9.90
2019-04-04T01:00:01.673Z,9.90
2019-04-04T01:02:30.196Z,9.90
2019-04-04T01:05:01.326Z,9.90
2019-04-04T01:07:28.817Z,9.90
2019-04-04T01:09:57.344Z,9.90
2019-04-04T01:12:25.864Z,10.00
2019-04-04T01:14:54.364Z,10.00
2019-04-04T01:17:22.895Z,10.00
2019-04-04T01:19:51.319Z,10.00
2019-04-04T01:22:19.801Z,10.10
2019-04-04T01:24:48.227Z,10.10
2019-04-04T01:27:16.695Z,10.10
2019-04-04T01:29:45.150Z,10.10
2019-04-04T01:32:15.120Z,10.00
2019-04-04T01:34:43.794Z,10.00
2019-04-04T01:37:12.263Z,10.00
2019-04-04T01:39:40.696Z,9.90
2019-04-04T01:42:09.259Z,10.00
2019-04-04T01:44:37.703Z,10.00
2019-04-04T01:47:06.163Z,10.00
2019-04-04T01:49:34.610Z,9.90
2019-04-04T01:52:03.111Z,9.80
2019-04-04T01:54:32.142Z,9.80
2019-04-04T01:57:01.248Z,9.80
2019-04-04T01:59:29.700Z,9.70
2019-04-04T02:01:58.139Z,9.60
2019-04-04T02:04:26.605Z,9.60
2019-04-04T02:06:55.044Z,9.60
2019-04-04T02:09:23.490Z,9.50
2019-04-04T02:11:51.990Z,9.40
2019-04-04T02:14:20.449Z,9.40
2019-04-04T02:16:51.461Z,9.40
2019-04-04T02:19:19.124Z,9.40
2019-04-04T02:21:47.611Z,9.50
2019-04-04T02:24:16.083Z,9.50
2019-04-04T02:26:44.694Z,9.60
2019-04-04T02:29:13.201Z,9.80
2019-04-04T02:31:55.444Z,9.70
2019-04-04T02:34:23.899Z,9.80
2019-04-04T02:36:52.332Z,9.80
2019-04-04T02:39:21.876Z,9.80
2019-04-04T02:41:50.367Z,9.90
2019-04-04T02:44:18.951Z,9.90
2019-04-04T02:46:47.399Z,9.90
2019-04-04T02:49:15.904Z,9.80
2019-04-04T02:51:44.331Z,9.80
2019-04-04T02:54:12.784Z,9.80
2019-04-04T02:56:41.233Z,9.90
2019-04-04T02:59:09.692Z,9.80
2019-04-04T03:01:38.138Z,9.80
2019-04-04T03:04:06.765Z,9.80
2019-04-04T03:06:35.239Z,9.80
2019-04-04T03:09:08.887Z,9.80
2019-04-04T03:11:35.585Z,9.70
2019-04-04T03:14:04.663Z,9.80
2019-04-04T03:16:33.320Z,9.80
2019-04-04T03:19:01.796Z,9.80
2019-04-04T03:21:30.254Z,9.70
2019-04-04T03:23:58.751Z,9.70
2019-04-04T03:26:27.225Z,9.80
2019-04-04T03:28:55.717Z,9.70
2019-04-04T03:31:24.167Z,9.80
2019-04-04T03:33:52.671Z,9.80
2019-04-04T03:36:21.174Z,9.80
2019-04-04T03:38:49.601Z,9.80
2019-04-04T03:41:18.054Z,9.90
2019-04-04T03:43:48.961Z,9.90
2019-04-04T03:46:16.671Z,10.00
2019-04-04T03:48:45.112Z,10.00
2019-04-04T03:51:13.670Z,10.00
2019-04-04T03:53:43.764Z,10.00
2019-04-04T03:56:12.284Z,10.10
2019-04-04T03:58:40.902Z,10.20
2019-04-04T04:01:12.108Z,10.20
2019-04-04T04:03:39.618Z,10.10
2019-04-04T04:06:08.849Z,10.20
2019-04-04T04:08:38.316Z,10.30
2019-04-04T04:11:06.764Z,10.10
2019-04-04T04:13:35.291Z,10.10
2019-04-04T04:16:03.966Z,10.10
2019-04-04T04:18:32.646Z,10.20
2019-04-04T04:21:01.100Z,10.20
2019-04-04T04:23:29.546Z,10.20
2019-04-04T04:25:57.990Z,10.20
2019-04-04T04:28:26.440Z,10.30
2019-04-04T04:30:54.939Z,10.50
2019-04-04T04:33:23.395Z,10.30
2019-04-04T04:35:51.831Z,10.30
2019-04-04T04:38:25.152Z,10.30
2019-04-04T04:40:50.438Z,10.20
2019-04-04T04:43:18.894Z,10.10
2019-04-04T04:45:47.341Z,10.00
2019-04-04T04:48:15.876Z,10.00
2019-04-04T04:50:44.371Z,9.90
2019-04-04T04:53:12.827Z,9.90
2019-04-04T04:55:41.253Z,9.90
2019-04-04T04:58:10.255Z,10.00
2019-04-04T05:00:39.633Z,10.00
2019-04-04T05:03:08.079Z,10.00
2019-04-04T05:05:36.520Z,10.10
2019-04-04T05:08:04.990Z,10.10
2019-04-04T05:10:33.511Z,10.10
2019-04-04T05:13:02.035Z,10.00
2019-04-04T05:15:32.418Z,10.00
2019-04-04T05:18:00.654Z,10.10
2019-04-04T05:20:29.864Z,10.00
2019-04-04T05:22:58.530Z,10.00
2019-04-04T05:25:27.054Z,10.00
2019-04-04T05:27:55.496Z,10.00
2019-04-04T05:30:23.942Z,10.00
2019-04-04T05:32:56.053Z,10.00
2019-04-04T05:35:22.556Z,10.00
2019-04-04T05:37:51.054Z,10.00
2019-04-04T05:40:23.134Z,10.00
2019-04-04T05:42:49.924Z,9.90
2019-04-04T05:45:18.449Z,9.90
2019-04-04T05:47:46.888Z,10.00
2019-04-04T05:50:16.552Z,9.90
2019-04-04T05:52:45.096Z,9.90
2019-04-04T05:55:13.615Z,9.80
2019-04-04T05:57:42.126Z,9.90
2019-04-04T06:00:12.455Z,9.90
2019-04-04T06:02:41.049Z,10.00
2019-04-04T06:05:11.317Z,10.00
2019-04-04T06:07:39.757Z,10.10
2019-04-04T06:10:11.825Z,10.20
2019-04-04T06:12:39.119Z,10.20
2019-04-04T06:15:08.041Z,10.30
2019-04-04T06:17:38.704Z,10.30
2019-04-04T06:20:09.508Z,10.40
2019-04-04T06:22:38.006Z,10.50
2019-04-04T06:25:06.911Z,10.50
2019-04-04T06:27:35.332Z,10.50
2019-04-04T06:30:05.523Z,10.60
2019-04-04T06:32:33.961Z,10.60
2019-04-04T06:35:02.490Z,10.70
2019-04-04T06:37:31.029Z,10.70
2019-04-04T06:39:59.629Z,10.70
2019-04-04T06:42:28.171Z,10.70
2019-04-04T06:44:56.702Z,10.70
2019-04-04T06:47:25.547Z,10.70
2019-04-04T06:49:54.919Z,10.60
2019-04-04T06:52:23.612Z,10.60
2019-04-04T06:54:52.150Z,10.70
2019-04-04T06:57:20.593Z,10.70
2019-04-04T06:59:51.123Z,10.70
2019-04-04T07:02:19.284Z,10.70
2019-04-04T07:04:47.719Z,10.70
2019-04-04T07:07:16.184Z,10.70
2019-04-04T07:09:44.615Z,10.70
2019-04-04T07:12:22.289Z,10.70
2019-04-04T07:14:46.277Z,10.70
2019-04-04T07:17:16.179Z,10.70
2019-04-04T07:19:45.918Z,10.70
2019-04-04T07:22:13.807Z,10.70
2019-04-04T07:24:42.351Z,10.70
2019-04-04T07:27:10.814Z,10.70
2019-04-04T07:29:39.255Z,10.70
2019-04-04T07:32:09.470Z,10.70
2019-04-04T07:34:37.938Z,10.70
2019-04-04T07:37:06.396Z,10.70
2019-04-04T07:39:34.874Z,10.70
2019-04-04T07:42:03.404Z,10.70
2019-04-04T07:44:31.847Z,10.70
2019-04-04T07:47:00.362Z,10.70
2019-04-04T07:49:28.794Z,10.70
2019-04-04T07:51:57.254Z,10.70
2019-04-04T07:54:25.698Z,10.70
2019-04-04T07:56:54.186Z,10.70
2019-04-04T07:59:22.634Z,10.70
2019-04-04T08:01:51.643Z,10.70
2019-04-04T08:04:20.294Z,10.70
2019-04-04T08:06:48.776Z,10.70
2019-04-04T08:09:17.289Z,10.70
2019-04-04T08:11:45.829Z,10.80
2019-04-04T08:14:14.257Z,10.80
2019-04-04T08:16:42.758Z,10.80
2019-04-04T08:19:11.239Z,10.80
2019-04-04T08:21:39.739Z,10.70
2019-04-04T08:24:08.190Z,10.80
2019-04-04T08:26:36.644Z,10.80
2019-04-04T08:29:05.211Z,10.80
2019-04-04T08:31:33.642Z,10.80
2019-04-04T08:34:02.100Z,10.80
2019-04-04T08:36:30.599Z,10.80
2019-04-04T08:38:59.059Z,10.80
2019-04-04T08:41:27.493Z,10.80
2019-04-04T08:43:55.950Z,10.80
2019-04-04T08:46:24.412Z,10.80
2019-04-04T08:48:52.923Z,10.80
2019-04-04T08:51:21.379Z,10.80
2019-04-04T08:53:49.865Z,10.90
2019-04-04T08:56:18.310Z,10.90
2019-04-04T08:58:46.773Z,10.90
2019-04-04T09:01:15.259Z,11.00
2019-04-04T09:03:43.731Z,11.00
2019-04-04T09:06:12.189Z,11.40
2019-04-04T09:08:40.646Z,11.10
2019-04-04T09:11:09.121Z,11.10
2019-04-04T09:13:37.642Z,11.10
2019-04-04T09:16:06.182Z,11.10
2019-04-04T09:18:34.696Z,11.10
2019-04-04T09:21:03.226Z,11.10
2019-04-04T09:23:31.758Z,11.10
2019-04-04T09:26:05.947Z,11.10
2019-04-04T09:28:30.353Z,11.00
2019-04-04T09:30:58.821Z,11.00
2019-04-04T09:33:27.254Z,10.90
2019-04-04T09:35:55.715Z,10.90
2019-04-04T09:38:24.159Z,10.90
2019-04-04T09:40:52.708Z,10.90
2019-04-04T09:43:21.158Z,10.80
2019-04-04T09:45:49.761Z,10.70
2019-04-04T09:48:18.275Z,10.80
2019-04-04T09:50:46.899Z,10.80
2019-04-04T09:53:15.337Z,10.80
2019-04-04T09:55:43.790Z,10.80
2019-04-04T09:58:12.233Z,10.80
2019-04-04T10:00:40.961Z,10.90
2019-04-04T10:03:09.468Z,10.90
2019-04-04T10:05:38.025Z,10.90
2019-04-04T10:08:07.191Z,10.90
2019-04-04T10:10:35.783Z,10.90
2019-04-04T10:13:04.283Z,10.90
2019-04-04T10:15:32.750Z,10.90
2019-04-04T10:18:01.183Z,10.90
2019-04-04T10:20:29.650Z,10.90
2019-04-04T10:22:58.160Z,11.00
2019-04-04T10:25:26.671Z,11.00
2019-04-04T10:27:55.111Z,11.00
2019-04-04T10:30:23.572Z,11.00
2019-04-04T10:32:52.002Z,11.00
2019-04-04T10:35:20.534Z,11.00
2019-04-04T10:37:48.977Z,11.00
2019-04-04T10:40:17.749Z,11.00
2019-04-04T10:42:46.194Z,11.00
2019-04-04T10:45:14.876Z,11.00
2019-04-04T10:47:43.340Z,11.00
2019-04-04T10:50:12.202Z,11.00
2019-04-04T10:52:40.656Z,11.00
2019-04-04T10:55:09.323Z,11.10
2019-04-04T10:57:38.232Z,11.10
2019-04-04T11:00:08.999Z,11.20
2019-04-04T11:02:37.518Z,11.20
2019-04-04T11:05:06.311Z,11.20
2019-04-04T11:07:35.243Z,11.20
2019-04-04T11:10:24.600Z,11.30
2019-04-04T11:12:53.136Z,11.20
2019-04-04T11:15:21.564Z,11.20
2019-04-04T11:17:50.027Z,11.10
2019-04-04T11:20:18.463Z,11.10
2019-04-04T11:22:46.927Z,11.10
2019-04-04T11:25:15.419Z,11.10
2019-04-04T11:27:43.878Z,11.20
2019-04-04T11:30:12.652Z,11.20
2019-04-04T11:32:41.118Z,11.20
2019-04-04T11:35:09.760Z,11.30
2019-04-04T11:37:38.207Z,11.30
2019-04-04T11:40:06.891Z,11.30
2019-04-04T11:42:35.340Z,11.30
2019-04-04T11:45:04.444Z,11.30
2019-04-04T11:47:32.891Z,11.30
2019-04-04T11:50:01.334Z,11.30
2019-04-04T11:52:29.867Z,11.40
2019-04-04T11:55:02.030Z,11.40
2019-04-04T11:57:30.460Z,11.40
2019-04-04T11:59:58.907Z,11.40
2019-04-04T12:02:28.811Z,11.40
2019-04-04T12:04:57.906Z,11.40
2019-04-04T12:07:26.571Z,11.30
2019-04-04T12:10:06.790Z,11.40
2019-04-04T12:12:25.219Z,11.40
2019-04-04T12:14:53.807Z,11.40
2019-04-04T12:17:22.251Z,11.40
2019-04-04T12:19:50.712Z,11.40
2019-04-04T12:22:19.147Z,11.40
2019-04-04T12:24:47.604Z,11.40
2019-04-04T12:27:16.035Z,11.40
2019-04-04T12:29:44.500Z,11.40
2019-04-04T12:32:12.936Z,11.40
2019-04-04T12:34:41.399Z,11.40
2019-04-04T12:37:09.859Z,11.40
2019-04-04T12:39:38.328Z,11.40
2019-04-04T12:42:06.834Z,11.40
2019-04-04T12:44:35.291Z,11.40
2019-04-04T12:47:03.809Z,11.30
2019-04-04T12:49:32.423Z,11.30
2019-04-04T12:52:00.886Z,11.30
2019-04-04T12:54:29.339Z,11.30
2019-04-04T12:56:57.811Z,11.20
2019-04-04T12:59:26.268Z,11.10
2019-04-04T13:01:54.700Z,11.00
2019-04-04T13:04:31.579Z,10.90
2019-04-04T13:06:53.326Z,10.90
2019-04-04T13:09:21.797Z,10.80
2019-04-04T13:11:50.227Z,10.80
2019-04-04T13:14:18.658Z,10.70
2019-04-04T13:16:47.127Z,10.70
2019-04-04T13:19:15.564Z,10.60
2019-04-04T13:21:44.070Z,10.60
2019-04-04T13:24:12.586Z,10.60
2019-04-04T13:26:41.048Z,10.70
2019-04-04T13:29:09.475Z,10.70
2019-04-04T13:31:37.929Z,10.80
2019-04-04T13:34:06.447Z,10.80
2019-04-04T13:36:36.747Z,10.80
2019-04-04T13:39:08.767Z,10.80
2019-04-04T13:41:37.710Z,10.80
2019-04-04T13:44:06.271Z,10.80
2019-04-04T13:46:34.731Z,10.90
2019-04-04T13:49:03.158Z,10.90
2019-04-04T13:51:31.626Z,10.90
2019-04-04T13:54:00.067Z,10.90
2019-04-04T13:56:29.341Z,10.90
2019-04-04T13:59:01.141Z,11.00
2019-04-04T14:01:28.181Z,11.00
2019-04-04T14:03:56.665Z,11.00
2019-04-04T14:06:25.131Z,11.00
2019-04-04T14:08:53.567Z,11.00
2019-04-04T14:11:22.030Z,10.90
2019-04-04T14:13:50.459Z,10.90
2019-04-04T14:16:18.914Z,10.90
2019-04-04T14:18:47.376Z,10.80
2019-04-04T14:21:15.872Z,10.90
2019-04-04T14:23:45.347Z,10.90
2019-04-04T14:26:14.051Z,10.80
2019-04-04T14:28:42.515Z,10.80
2019-04-04T14:31:10.962Z,10.80
2019-04-04T14:33:39.478Z,10.80
2019-04-04T14:36:07.919Z,10.80
2019-04-04T14:38:36.373Z,10.90
2019-04-04T14:41:11.033Z,10.90
2019-04-04T14:43:34.992Z,11.00
2019-04-04T14:46:03.714Z,11.10
2019-04-04T14:48:32.256Z,11.20
2019-04-04T14:51:00.756Z,11.30
2019-04-04T14:53:29.328Z,11.50
2019-04-04T14:55:57.851Z,11.60
2019-04-04T14:58:26.303Z,11.70
2019-04-04T15:00:54.741Z,11.80
2019-04-04T15:03:23.187Z,11.80
2019-04-04T15:05:51.618Z,11.90
2019-04-04T15:08:20.070Z,11.90
2019-04-04T15:10:48.511Z,12.00
2019-04-04T15:13:16.997Z,12.00
2019-04-04T15:16:13.724Z,12.00
2019-04-04T15:18:42.163Z,11.90
2019-04-04T15:21:10.662Z,11.80
2019-04-04T15:23:39.124Z,11.70
2019-04-04T15:26:09.725Z,11.70
2019-04-04T15:28:37.830Z,11.50
2019-04-04T15:31:06.524Z,11.30
2019-04-04T15:33:35.044Z,11.30
2019-04-04T15:36:03.475Z,11.20
2019-04-04T15:38:32.497Z,11.20
2019-04-04T15:41:01.002Z,11.20
2019-04-04T15:43:29.430Z,11.10
2019-04-04T15:45:57.886Z,11.10
2019-04-04T15:48:26.319Z,11.10
2019-04-04T15:50:54.770Z,11.10
2019-04-04T15:53:23.293Z,11.10
2019-04-04T15:55:51.788Z,11.00
2019-04-04T15:58:20.236Z,11.10
2019-04-04T16:00:48.705Z,11.10
2019-04-04T16:03:17.201Z,11.10
2019-04-04T16:05:45.658Z,11.10
2019-04-04T16:08:14.088Z,11.10
2019-04-04T16:10:42.669Z,11.10
2019-04-04T16:13:11.236Z,11.10
2019-04-04T16:15:40.115Z,11.10
2019-04-04T16:18:08.543Z,11.10
2019-04-04T16:20:37.243Z,11.10
2019-04-04T16:23:05.809Z,11.10
2019-04-04T16:25:34.270Z,11.10
2019-04-04T16:28:02.708Z,11.20
2019-04-04T16:30:31.180Z,11.30
2019-04-04T16:32:59.616Z,11.40
2019-04-04T16:35:28.079Z,11.50
2019-04-04T16:37:56.516Z,11.70
2019-04-04T16:40:24.972Z,11.80
2019-04-04T16:42:53.417Z,11.90
2019-04-04T16:45:21.883Z,11.90
2019-04-04T16:47:50.343Z,11.90
2019-04-04T16:50:20.455Z,11.80
2019-04-04T16:52:49.003Z,11.80
2019-04-04T16:55:17.544Z,11.70
2019-04-04T16:57:45.991Z,11.70
2019-04-04T17:00:15.289Z,11.60
2019-04-04T17:02:43.787Z,11.60
2019-04-04T17:05:12.579Z,11.60
2019-04-04T17:07:41.103Z,11.50
2019-04-04T17:10:10.400Z,11.50
2019-04-04T17:12:38.834Z,11.50
2019-04-04T17:15:08.239Z,11.50
2019-04-04T17:17:36.683Z,11.50
2019-04-04T17:20:08.233Z,11.60
2019-04-04T17:22:36.703Z,11.60
2019-04-04T17:25:06.715Z,11.60
2019-04-04T17:27:37.163Z,11.60
2019-04-04T17:30:07.510Z,11.70
2019-04-04T17:32:36.184Z,11.60
2019-04-04T17:35:07.367Z,11.60
2019-04-04T17:37:36.036Z,11.60
2019-04-04T17:40:06.539Z,11.60
2019-04-04T17:42:35.592Z,11.60
2019-04-04T17:45:09.407Z,11.60
2019-04-04T17:47:38.575Z,11.60
2019-04-04T17:50:09.718Z,11.60
2019-04-04T17:52:38.215Z,11.60
2019-04-04T17:55:08.668Z,11.60
2019-04-04T17:57:37.252Z,11.50
2019-04-04T18:00:07.723Z,11.50
2019-04-04T18:02:38.331Z,11.60
2019-04-04T18:05:10.919Z,11.50
2019-04-04T18:07:39.469Z,11.50
2019-04-04T18:10:09.939Z,11.50
2019-04-04T18:12:40.648Z,11.50
2019-04-04T18:15:09.609Z,11.50
2019-04-04T18:17:38.110Z,11.50
2019-04-04T18:20:08.504Z,11.50
2019-04-04T18:22:37.456Z,11.50
2019-04-04T18:25:06.953Z,11.50
2019-04-04T18:27:35.450Z,11.50
2019-04-04T18:30:07.012Z,11.50
2019-04-04T18:32:35.516Z,11.50
2019-04-04T18:35:06.118Z,11.50
2019-04-04T18:37:35.012Z,11.50
2019-04-04T18:40:05.886Z,11.50
2019-04-04T18:42:34.342Z,11.50
2019-04-04T18:45:02.878Z,11.50
2019-04-04T18:47:31.415Z,11.50
2019-04-04T18:49:59.884Z,11.50
2019-04-04T18:52:28.455Z,11.50
2019-04-04T18:54:56.923Z,11.50
2019-04-04T18:57:25.438Z,11.50
2019-04-04T18:59:53.895Z,11.50
2019-04-04T19:02:22.352Z,11.50
2019-04-04T19:04:50.815Z,11.60
2019-04-04T19:07:19.648Z,11.50
2019-04-04T19:09:48.182Z,11.60
2019-04-04T19:12:16.694Z,11.60
2019-04-04T19:14:45.152Z,11.60
2019-04-04T19:17:13.585Z,11.50
2019-04-04T19:19:42.042Z,11.60
2019-04-04T19:22:10.622Z,11.50
2019-04-04T19:24:39.088Z,11.50
2019-04-04T19:27:07.775Z,11.50
2019-04-04T19:29:36.234Z,11.50
2019-04-04T19:32:06.272Z,11.50
2019-04-04T19:34:34.864Z,11.50
2019-04-04T19:37:03.371Z,11.50
2019-04-04T19:39:31.831Z,11.50
2019-04-04T19:42:00.362Z,11.50
2019-04-04T19:44:29.024Z,11.50
2019-04-04T19:46:57.602Z,11.50
2019-04-04T19:49:26.144Z,11.50
2019-04-04T19:51:54.633Z,11.50
2019-04-04T19:54:23.167Z,11.50
2019-04-04T19:56:51.700Z,11.60
2019-04-04T19:59:20.180Z,11.60
2019-04-04T20:01:48.748Z,11.60
2019-04-04T20:04:17.275Z,11.60
2019-04-04T20:06:45.791Z,11.60
2019-04-04T20:09:14.273Z,11.60
2019-04-04T20:11:42.732Z,11.60
2019-04-04T20:14:11.226Z,11.60
2019-04-04T20:16:39.748Z,11.60
2019-04-04T20:19:08.201Z,11.60
2019-04-04T20:21:36.676Z,11.60
2019-04-04T20:24:05.139Z,11.50
2019-04-04T20:26:33.607Z,11.50
2019-04-04T20:29:02.121Z,11.50
2019-04-04T20:31:30.680Z,11.50
2019-04-04T20:34:01.918Z,11.50
2019-04-04T20:36:29.316Z,11.40
2019-04-04T20:38:57.764Z,11.40
2019-04-04T20:41:26.321Z,11.40
2019-04-04T20:43:54.775Z,11.30
2019-04-04T20:46:24.772Z,11.30
2019-04-04T20:48:53.789Z,11.30
2019-04-04T20:51:22.301Z,11.30
2019-04-04T20:53:50.764Z,11.30
2019-04-04T20:56:19.203Z,11.30
2019-04-04T20:58:47.659Z,11.30
2019-04-04T21:01:16.864Z,11.30
2019-04-04T21:03:45.384Z,11.30
2019-04-04T21:06:13.995Z,11.40
2019-04-04T21:08:42.514Z,11.40
2019-04-04T21:11:11.132Z,11.40
2019-04-04T21:13:39.646Z,11.40
2019-04-04T21:16:08.170Z,11.40
2019-04-04T21:18:36.702Z,11.40
2019-04-04T21:21:05.179Z,11.40
2019-04-04T21:23:33.705Z,11.40
2019-04-04T21:26:02.806Z,11.40
2019-04-04T21:28:31.250Z,11.40
2019-04-04T21:30:59.704Z,11.40
2019-04-04T21:33:28.219Z,11.30
2019-04-04T21:35:56.752Z,11.40
2019-04-04T21:38:25.203Z,11.30
2019-04-04T21:40:53.656Z,11.30
2019-04-04T21:43:22.095Z,11.30
2019-04-04T21:45:50.573Z,11.30
2019-04-04T21:48:19.050Z,11.30
2019-04-04T21:50:47.547Z,11.30
2019-04-04T21:53:15.983Z,11.30
2019-04-04T21:55:44.474Z,11.30
2019-04-04T21:58:12.911Z,11.30
2019-04-04T22:00:43.604Z,11.20
2019-04-04T22:03:12.226Z,11.30
2019-04-04T22:05:40.888Z,11.30
2019-04-04T22:08:09.324Z,11.20
2019-04-04T22:10:37.780Z,11.20
2019-04-04T22:13:06.243Z,11.30
2019-04-04T22:15:34.690Z,11.20
2019-04-04T22:18:03.190Z,11.20
2019-04-04T22:20:31.655Z,11.20
2019-04-04T22:23:00.095Z,11.20
2019-04-04T22:25:28.526Z,11.20
2019-04-04T22:27:56.987Z,11.20
2019-04-04T22:30:25.488Z,11.20
2019-04-04T22:32:53.951Z,11.20
2019-04-04T22:35:22.388Z,11.10
2019-04-04T22:37:50.867Z,11.10
2019-04-04T22:40:19.298Z,11.10
2019-04-04T22:42:47.819Z,11.10
2019-04-04T22:45:16.392Z,11.10
2019-04-04T22:47:44.842Z,11.10
2019-04-04T22:50:13.639Z,11.00
2019-04-04T22:52:42.105Z,11.00
2019-04-04T22:55:10.709Z,11.00
2019-04-04T22:57:39.159Z,10.90
2019-04-04T23:00:09.471Z,10.90
2019-04-04T23:02:37.926Z,10.90
2019-04-04T23:05:07.176Z,10.90
2019-04-04T23:07:35.634Z,10.90
2019-04-04T23:10:06.471Z,10.90
2019-04-04T23:12:34.937Z,10.90
2019-04-04T23:15:03.638Z,10.90
2019-04-04T23:17:32.088Z,10.90
2019-04-04T23:20:00.535Z,10.90
2019-04-04T23:22:29.087Z,10.90
2019-04-04T23:24:57.523Z,10.80
2019-04-04T23:27:25.976Z,10.80
2019-04-04T23:29:54.403Z,10.80
2019-04-04T23:32:22.869Z,10.70
2019-04-04T23:34:51.368Z,10.70
2019-04-04T23:37:19.797Z,10.50
2019-04-04T23:39:48.259Z,10.50
2019-04-04T23:42:16.695Z,10.50
2019-04-04T23:44:45.144Z,10.50
2019-04-04T23:47:13.581Z,10.50
2019-04-04T23:49:42.108Z,10.50
2019-04-04T23:52:10.531Z,10.40
2019-04-04T23:54:38.996Z,10.40
2019-04-04T23:57:07.489Z,10.40
2019-04-04T23:59:35.943Z,10.40
